Suvarnabhumi Airport
VTBS : now visible

Airfield :











YOU CAN JOIN US ON...

 
LOGIN :

Register | Disclaimer

   EN    FR    IT 

 









Legend :    VFR   Marginal VFR   IFR   Intensive IFR   Very Intensive IFR
Visi :
Ceiling :
>= 8 km
>= 3000ft
5 to 8 km
1000 to 3000 ft
1500m to 5 km
500 to 1000 ft
800 to 1500m
200 to 500 ft
< 800m
< 200 ft
Symbols :   Thunderstorms  Fog  Heavy snow  Heavy precipitations  Wind > 20 kt







- Airport Elevation : 5 ft
- IATA code : BKK


VTBS - Suvarnabhumi

CURRENT METAR :
  • 152130Z 18009KT 9000 FEW015 SCT020 28/24 Q1013 NOSIG

EXPIRED METARs :
  • 152100Z 19008KT 9000 FEW015 SCT020 28/24 Q1013 NOSIG
  • 152030Z 19007KT 9000 SCT020 27/24 Q1013 NOSIG
  • 152000Z 21007KT 9000 FEW020 27/24 Q1013 NOSIG
  • 151930Z 20008KT 9000 FEW020 27/24 Q1013 NOSIG
  • 151900Z 20007KT 9000 FEW020 27/24 Q1013 NOSIG

TAF TAF VTBS
Valid from the 15 at 18:00 until the 17 at 00:00 UTC


151700Z 1518/1624 20008KT 8000 FEW020 SCT040
VTBB FIR / Asia



MET'MAP, your aeronautical weather chart ! - Copyright ORBIFLY December 2007 - Disclaimer

ORBIFLY MET'MAP TEAM :

Programming & Development : Alexandra Zaïnal
Concept & Development : Baudouin d'Aumeries
Co-Development & Prog : Marc-Olivier Méhu
Technical & hardware support : Manuel Goepfert

Contact : metmap@orbifly.com




SOURCES & CREDITS :

   NOAA       Earth
Advisory